sensor_id;sensor_type;location;lat;lon;timestamp;P1;durP1;ratioP1;P2;durP2;ratioP2
26620;SDS011;14253;44.840;10.444;2023-04-03T00:00:50;4.97;;;2.70;;
26620;SDS011;14253;44.840;10.444;2023-04-03T00:03:17;3.72;;;2.90;;
26620;SDS011;14253;44.840;10.444;2023-04-03T00:05:43;3.70;;;2.25;;
26620;SDS011;14253;44.840;10.444;2023-04-03T00:08:10;4.60;;;2.38;;
26620;SDS011;14253;44.840;10.444;2023-04-03T00:10:36;4.25;;;2.30;;
26620;SDS011;14253;44.840;10.444;2023-04-03T00:13:03;5.15;;;2.20;;
26620;SDS011;14253;44.840;10.444;2023-04-03T00:15:30;4.65;;;2.63;;
26620;SDS011;14253;44.840;10.444;2023-04-03T00:17:56;4.80;;;3.00;;
26620;SDS011;14253;44.840;10.444;2023-04-03T00:20:22;5.95;;;3.15;;
26620;SDS011;14253;44.840;10.444;2023-04-03T00:22:48;5.47;;;2.80;;
26620;SDS011;14253;44.840;10.444;2023-04-03T00:25:14;7.10;;;2.88;;
26620;SDS011;14253;44.840;10.444;2023-04-03T00:27:40;6.32;;;2.58;;
26620;SDS011;14253;44.840;10.444;2023-04-03T00:30:06;3.70;;;2.38;;
26620;SDS011;14253;44.840;10.444;2023-04-03T00:32:35;4.70;;;2.80;;
26620;SDS011;14253;44.840;10.444;2023-04-03T00:35:01;4.03;;;2.38;;
26620;SDS011;14253;44.840;10.444;2023-04-03T00:37:27;4.32;;;2.67;;
26620;SDS011;14253;44.840;10.444;2023-04-03T00:39:53;5.20;;;2.25;;
26620;SDS011;14253;44.840;10.444;2023-04-03T00:42:19;4.60;;;3.15;;
26620;SDS011;14253;44.840;10.444;2023-04-03T00:47:12;4.93;;;3.50;;
26620;SDS011;14253;44.840;10.444;2023-04-03T00:49:41;6.15;;;2.95;;
26620;SDS011;14253;44.840;10.444;2023-04-03T00:52:10;3.45;;;2.78;;
26620;SDS011;14253;44.840;10.444;2023-04-03T00:54:40;6.28;;;3.10;;
26620;SDS011;14253;44.840;10.444;2023-04-03T00:57:07;8.68;;;3.30;;
26620;SDS011;14253;44.840;10.444;2023-04-03T00:59:37;6.93;;;3.35;;
26620;SDS011;14253;44.840;10.444;2023-04-03T01:02:06;6.28;;;3.20;;
26620;SDS011;14253;44.840;10.444;2023-04-03T01:04:33;3.80;;;3.33;;
26620;SDS011;14253;44.840;10.444;2023-04-03T01:07:05;7.03;;;4.80;;
26620;SDS011;14253;44.840;10.444;2023-04-03T01:09:35;4.55;;;3.22;;
26620;SDS011;14253;44.840;10.444;2023-04-03T01:15:27;4.78;;;3.95;;
26620;SDS011;14253;44.840;10.444;2023-04-03T01:18:21;5.22;;;2.85;;
26620;SDS011;14253;44.840;10.444;2023-04-03T01:27:01;7.00;;;4.32;;
26620;SDS011;14253;44.840;10.444;2023-04-03T01:29:53;26.58;;;11.32;;
26620;SDS011;14253;44.840;10.444;2023-04-03T01:32:38;6.43;;;3.88;;
26620;SDS011;14253;44.840;10.444;2023-04-03T01:35:16;10.75;;;4.57;;
26620;SDS011;14253;44.840;10.444;2023-04-03T01:37:42;17.10;;;7.22;;
26620;SDS011;14253;44.840;10.444;2023-04-03T01:40:08;29.42;;;9.45;;
26620;SDS011;14253;44.840;10.444;2023-04-03T01:42:34;10.07;;;4.43;;
26620;SDS011;14253;44.840;10.444;2023-04-03T01:45:00;4.65;;;3.05;;
26620;SDS011;14253;44.840;10.444;2023-04-03T01:47:26;3.50;;;2.83;;
26620;SDS011;14253;44.840;10.444;2023-04-03T01:49:52;5.15;;;2.97;;
26620;SDS011;14253;44.840;10.444;2023-04-03T01:52:18;4.45;;;2.72;;
26620;SDS011;14253;44.840;10.444;2023-04-03T01:54:44;9.32;;;3.10;;
26620;SDS011;14253;44.840;10.444;2023-04-03T01:57:10;4.22;;;3.05;;
26620;SDS011;14253;44.840;10.444;2023-04-03T01:59:38;4.03;;;2.65;;
26620;SDS011;14253;44.840;10.444;2023-04-03T02:02:06;4.57;;;2.97;;
26620;SDS011;14253;44.840;10.444;2023-04-03T02:04:32;6.32;;;2.78;;
26620;SDS011;14253;44.840;10.444;2023-04-03T02:06:58;6.82;;;3.05;;
26620;SDS011;14253;44.840;10.444;2023-04-03T02:09:24;3.30;;;2.28;;
26620;SDS011;14253;44.840;10.444;2023-04-03T02:11:52;4.65;;;2.63;;
26620;SDS011;14253;44.840;10.444;2023-04-03T02:14:18;6.18;;;2.78;;
26620;SDS011;14253;44.840;10.444;2023-04-03T02:16:44;3.67;;;2.88;;
26620;SDS011;14253;44.840;10.444;2023-04-03T02:19:10;3.50;;;2.38;;
26620;SDS011;14253;44.840;10.444;2023-04-03T02:21:36;3.53;;;2.50;;
26620;SDS011;14253;44.840;10.444;2023-04-03T02:24:02;5.82;;;2.75;;
26620;SDS011;14253;44.840;10.444;2023-04-03T02:26:28;3.30;;;2.75;;
26620;SDS011;14253;44.840;10.444;2023-04-03T02:28:54;7.07;;;3.00;;
26620;SDS011;14253;44.840;10.444;2023-04-03T02:31:20;5.03;;;2.78;;
26620;SDS011;14253;44.840;10.444;2023-04-03T02:33:47;4.80;;;2.42;;
26620;SDS011;14253;44.840;10.444;2023-04-03T02:36:14;5.18;;;2.38;;
26620;SDS011;14253;44.840;10.444;2023-04-03T02:38:43;4.57;;;2.40;;
26620;SDS011;14253;44.840;10.444;2023-04-03T02:41:10;4.88;;;2.70;;
26620;SDS011;14253;44.840;10.444;2023-04-03T02:43:37;5.75;;;2.63;;
26620;SDS011;14253;44.840;10.444;2023-04-03T02:46:04;4.07;;;2.70;;
26620;SDS011;14253;44.840;10.444;2023-04-03T02:48:30;9.40;;;4.30;;
26620;SDS011;14253;44.840;10.444;2023-04-03T02:50:56;6.00;;;3.92;;
26620;SDS011;14253;44.840;10.444;2023-04-03T02:53:22;4.28;;;3.35;;
26620;SDS011;14253;44.840;10.444;2023-04-03T02:55:49;5.32;;;3.20;;
26620;SDS011;14253;44.840;10.444;2023-04-03T02:58:15;6.07;;;3.20;;
26620;SDS011;14253;44.840;10.444;2023-04-03T03:00:41;6.13;;;3.55;;
26620;SDS011;14253;44.840;10.444;2023-04-03T03:03:07;4.55;;;3.10;;
26620;SDS011;14253;44.840;10.444;2023-04-03T03:05:33;9.65;;;3.95;;
26620;SDS011;14253;44.840;10.444;2023-04-03T03:07:59;7.07;;;3.30;;
26620;SDS011;14253;44.840;10.444;2023-04-03T03:10:25;4.50;;;3.05;;
26620;SDS011;14253;44.840;10.444;2023-04-03T03:12:51;5.97;;;3.75;;
26620;SDS011;14253;44.840;10.444;2023-04-03T03:15:17;6.90;;;2.92;;
26620;SDS011;14253;44.840;10.444;2023-04-03T03:17:44;5.80;;;3.97;;
26620;SDS011;14253;44.840;10.444;2023-04-03T03:20:10;9.48;;;3.33;;
26620;SDS011;14253;44.840;10.444;2023-04-03T03:22:39;4.47;;;2.95;;
26620;SDS011;14253;44.840;10.444;2023-04-03T03:25:05;4.40;;;3.25;;
26620;SDS011;14253;44.840;10.444;2023-04-03T03:27:31;4.70;;;3.25;;
26620;SDS011;14253;44.840;10.444;2023-04-03T03:29:57;6.88;;;3.20;;
26620;SDS011;14253;44.840;10.444;2023-04-03T03:32:23;6.00;;;3.38;;
26620;SDS011;14253;44.840;10.444;2023-04-03T03:34:50;4.35;;;3.03;;
26620;SDS011;14253;44.840;10.444;2023-04-03T03:37:15;6.75;;;3.47;;
26620;SDS011;14253;44.840;10.444;2023-04-03T03:39:41;5.45;;;3.95;;
26620;SDS011;14253;44.840;10.444;2023-04-03T03:42:07;4.20;;;2.78;;
26620;SDS011;14253;44.840;10.444;2023-04-03T03:44:33;5.55;;;3.38;;
26620;SDS011;14253;44.840;10.444;2023-04-03T03:46:59;9.38;;;3.58;;
26620;SDS011;14253;44.840;10.444;2023-04-03T03:49:27;5.55;;;3.60;;
26620;SDS011;14253;44.840;10.444;2023-04-03T03:51:53;6.05;;;3.70;;
26620;SDS011;14253;44.840;10.444;2023-04-03T03:54:21;5.45;;;3.50;;
26620;SDS011;14253;44.840;10.444;2023-04-03T03:56:47;6.60;;;3.80;;
26620;SDS011;14253;44.840;10.444;2023-04-03T03:59:13;5.25;;;2.97;;
26620;SDS011;14253;44.840;10.444;2023-04-03T04:01:40;8.85;;;3.67;;
26620;SDS011;14253;44.840;10.444;2023-04-03T04:04:06;8.85;;;3.75;;
26620;SDS011;14253;44.840;10.444;2023-04-03T04:06:32;9.20;;;3.47;;
26620;SDS011;14253;44.840;10.444;2023-04-03T04:09:02;7.80;;;3.58;;
26620;SDS011;14253;44.840;10.444;2023-04-03T04:11:29;6.78;;;3.95;;
26620;SDS011;14253;44.840;10.444;2023-04-03T04:13:55;8.50;;;4.15;;
26620;SDS011;14253;44.840;10.444;2023-04-03T04:16:24;5.43;;;3.90;;
26620;SDS011;14253;44.840;10.444;2023-04-03T04:18:51;5.05;;;3.70;;
26620;SDS011;14253;44.840;10.444;2023-04-03T04:21:19;9.05;;;3.70;;
26620;SDS011;14253;44.840;10.444;2023-04-03T04:23:45;5.00;;;3.83;;
26620;SDS011;14253;44.840;10.444;2023-04-03T04:26:12;6.18;;;4.35;;
26620;SDS011;14253;44.840;10.444;2023-04-03T04:28:39;5.95;;;4.65;;
26620;SDS011;14253;44.840;10.444;2023-04-03T04:31:06;7.68;;;3.95;;
26620;SDS011;14253;44.840;10.444;2023-04-03T04:33:32;9.27;;;4.00;;
26620;SDS011;14253;44.840;10.444;2023-04-03T04:36:01;7.10;;;3.95;;
26620;SDS011;14253;44.840;10.444;2023-04-03T04:38:27;7.38;;;3.97;;
26620;SDS011;14253;44.840;10.444;2023-04-03T04:40:54;7.43;;;3.47;;
26620;SDS011;14253;44.840;10.444;2023-04-03T04:43:20;8.23;;;3.85;;
26620;SDS011;14253;44.840;10.444;2023-04-03T04:45:59;5.78;;;3.97;;
26620;SDS011;14253;44.840;10.444;2023-04-03T04:48:27;7.15;;;3.65;;
26620;SDS011;14253;44.840;10.444;2023-04-03T04:50:53;5.45;;;3.60;;
26620;SDS011;14253;44.840;10.444;2023-04-03T04:53:19;8.35;;;3.97;;
26620;SDS011;14253;44.840;10.444;2023-04-03T04:55:45;5.97;;;4.15;;
26620;SDS011;14253;44.840;10.444;2023-04-03T04:58:11;6.80;;;3.75;;
26620;SDS011;14253;44.840;10.444;2023-04-03T05:00:38;7.90;;;4.30;;
26620;SDS011;14253;44.840;10.444;2023-04-03T05:03:05;7.13;;;4.40;;
26620;SDS011;14253;44.840;10.444;2023-04-03T05:05:31;9.05;;;4.75;;
26620;SDS011;14253;44.840;10.444;2023-04-03T05:07:57;9.93;;;5.30;;
26620;SDS011;14253;44.840;10.444;2023-04-03T05:10:23;10.32;;;5.60;;
26620;SDS011;14253;44.840;10.444;2023-04-03T05:12:49;6.53;;;5.18;;
26620;SDS011;14253;44.840;10.444;2023-04-03T05:15:15;7.70;;;5.57;;
26620;SDS011;14253;44.840;10.444;2023-04-03T05:17:42;9.43;;;5.28;;
26620;SDS011;14253;44.840;10.444;2023-04-03T05:20:12;7.82;;;4.57;;
26620;SDS011;14253;44.840;10.444;2023-04-03T05:22:39;8.77;;;5.10;;
26620;SDS011;14253;44.840;10.444;2023-04-03T05:25:07;8.18;;;4.95;;
26620;SDS011;14253;44.840;10.444;2023-04-03T05:27:36;8.52;;;5.03;;
26620;SDS011;14253;44.840;10.444;2023-04-03T05:30:02;11.82;;;5.20;;
26620;SDS011;14253;44.840;10.444;2023-04-03T05:32:35;8.15;;;4.90;;
26620;SDS011;14253;44.840;10.444;2023-04-03T05:35:35;10.15;;;4.88;;
26620;SDS011;14253;44.840;10.444;2023-04-03T05:38:05;7.97;;;4.30;;
26620;SDS011;14253;44.840;10.444;2023-04-03T05:40:33;7.30;;;4.25;;
26620;SDS011;14253;44.840;10.444;2023-04-03T05:43:06;9.25;;;4.82;;
26620;SDS011;14253;44.840;10.444;2023-04-03T05:45:40;6.45;;;4.00;;
26620;SDS011;14253;44.840;10.444;2023-04-03T05:48:29;8.07;;;5.00;;
26620;SDS011;14253;44.840;10.444;2023-04-03T05:51:03;9.52;;;5.00;;
26620;SDS011;14253;44.840;10.444;2023-04-03T05:53:31;7.28;;;4.70;;
26620;SDS011;14253;44.840;10.444;2023-04-03T05:56:03;8.45;;;4.88;;
26620;SDS011;14253;44.840;10.444;2023-04-03T05:58:34;8.15;;;4.55;;
26620;SDS011;14253;44.840;10.444;2023-04-03T06:01:00;7.75;;;4.25;;
26620;SDS011;14253;44.840;10.444;2023-04-03T06:03:27;7.68;;;4.43;;
26620;SDS011;14253;44.840;10.444;2023-04-03T06:05:53;8.73;;;3.83;;
26620;SDS011;14253;44.840;10.444;2023-04-03T06:08:19;9.13;;;3.63;;
26620;SDS011;14253;44.840;10.444;2023-04-03T06:10:45;7.70;;;4.60;;
26620;SDS011;14253;44.840;10.444;2023-04-03T06:13:11;11.73;;;6.03;;
26620;SDS011;14253;44.840;10.444;2023-04-03T06:15:37;9.05;;;4.68;;
26620;SDS011;14253;44.840;10.444;2023-04-03T06:18:07;9.43;;;5.88;;
26620;SDS011;14253;44.840;10.444;2023-04-03T06:20:34;9.13;;;5.45;;
26620;SDS011;14253;44.840;10.444;2023-04-03T06:23:00;10.82;;;4.50;;
26620;SDS011;14253;44.840;10.444;2023-04-03T06:25:26;7.78;;;5.90;;
26620;SDS011;14253;44.840;10.444;2023-04-03T06:27:52;9.30;;;5.93;;
26620;SDS011;14253;44.840;10.444;2023-04-03T06:30:20;9.35;;;6.63;;
26620;SDS011;14253;44.840;10.444;2023-04-03T06:32:46;12.65;;;8.68;;
26620;SDS011;14253;44.840;10.444;2023-04-03T06:35:13;17.17;;;11.05;;
26620;SDS011;14253;44.840;10.444;2023-04-03T06:37:39;8.75;;;6.75;;
26620;SDS011;14253;44.840;10.444;2023-04-03T06:40:05;22.05;;;12.90;;
26620;SDS011;14253;44.840;10.444;2023-04-03T06:42:32;18.45;;;12.23;;
26620;SDS011;14253;44.840;10.444;2023-04-03T06:45:05;10.10;;;7.72;;
26620;SDS011;14253;44.840;10.444;2023-04-03T06:47:32;8.77;;;6.40;;
26620;SDS011;14253;44.840;10.444;2023-04-03T06:49:59;8.57;;;6.28;;
26620;SDS011;14253;44.840;10.444;2023-04-03T06:52:25;12.15;;;6.80;;
26620;SDS011;14253;44.840;10.444;2023-04-03T06:54:51;8.75;;;6.45;;
26620;SDS011;14253;44.840;10.444;2023-04-03T06:57:22;7.00;;;6.20;;
26620;SDS011;14253;44.840;10.444;2023-04-03T06:59:48;9.48;;;6.63;;
26620;SDS011;14253;44.840;10.444;2023-04-03T07:02:14;7.93;;;6.40;;
26620;SDS011;14253;44.840;10.444;2023-04-03T07:04:41;13.30;;;8.13;;
26620;SDS011;14253;44.840;10.444;2023-04-03T07:07:07;11.70;;;7.78;;
26620;SDS011;14253;44.840;10.444;2023-04-03T07:09:33;11.43;;;8.35;;
26620;SDS011;14253;44.840;10.444;2023-04-03T07:11:59;10.00;;;7.97;;
26620;SDS011;14253;44.840;10.444;2023-04-03T07:14:25;11.60;;;8.38;;
26620;SDS011;14253;44.840;10.444;2023-04-03T07:16:54;11.57;;;8.82;;
26620;SDS011;14253;44.840;10.444;2023-04-03T07:19:20;11.18;;;8.10;;
26620;SDS011;14253;44.840;10.444;2023-04-03T07:21:46;12.77;;;8.05;;
26620;SDS011;14253;44.840;10.444;2023-04-03T07:24:12;12.13;;;7.70;;
26620;SDS011;14253;44.840;10.444;2023-04-03T07:26:38;15.48;;;8.23;;
26620;SDS011;14253;44.840;10.444;2023-04-03T07:29:04;11.27;;;7.40;;
26620;SDS011;14253;44.840;10.444;2023-04-03T07:31:30;10.48;;;7.10;;
26620;SDS011;14253;44.840;10.444;2023-04-03T07:33:56;11.35;;;6.97;;
26620;SDS011;14253;44.840;10.444;2023-04-03T07:36:22;15.13;;;7.47;;
26620;SDS011;14253;44.840;10.444;2023-04-03T07:38:48;10.77;;;7.18;;
26620;SDS011;14253;44.840;10.444;2023-04-03T07:41:15;10.50;;;6.88;;
26620;SDS011;14253;44.840;10.444;2023-04-03T07:43:43;11.65;;;6.93;;
26620;SDS011;14253;44.840;10.444;2023-04-03T07:46:10;7.22;;;6.35;;
26620;SDS011;14253;44.840;10.444;2023-04-03T07:48:36;9.30;;;6.30;;
26620;SDS011;14253;44.840;10.444;2023-04-03T07:51:02;10.55;;;6.85;;
26620;SDS011;14253;44.840;10.444;2023-04-03T07:53:29;9.93;;;6.55;;
26620;SDS011;14253;44.840;10.444;2023-04-03T07:55:57;11.25;;;7.07;;
26620;SDS011;14253;44.840;10.444;2023-04-03T07:58:23;13.30;;;6.20;;
26620;SDS011;14253;44.840;10.444;2023-04-03T08:00:50;9.77;;;6.70;;
26620;SDS011;14253;44.840;10.444;2023-04-03T08:03:17;10.75;;;6.60;;
26620;SDS011;14253;44.840;10.444;2023-04-03T08:05:44;9.18;;;6.47;;
26620;SDS011;14253;44.840;10.444;2023-04-03T08:08:11;10.63;;;6.15;;
26620;SDS011;14253;44.840;10.444;2023-04-03T08:10:40;7.63;;;5.55;;
26620;SDS011;14253;44.840;10.444;2023-04-03T08:13:06;6.93;;;4.68;;
26620;SDS011;14253;44.840;10.444;2023-04-03T08:15:33;9.57;;;4.80;;
26620;SDS011;14253;44.840;10.444;2023-04-03T08:17:59;7.70;;;4.30;;
26620;SDS011;14253;44.840;10.444;2023-04-03T08:20:26;8.05;;;4.47;;
26620;SDS011;14253;44.840;10.444;2023-04-03T08:22:52;5.32;;;4.20;;
26620;SDS011;14253;44.840;10.444;2023-04-03T08:25:18;6.97;;;4.30;;
26620;SDS011;14253;44.840;10.444;2023-04-03T08:27:44;7.22;;;4.20;;
26620;SDS011;14253;44.840;10.444;2023-04-03T08:30:10;9.23;;;4.35;;
26620;SDS011;14253;44.840;10.444;2023-04-03T08:32:37;12.30;;;4.97;;
26620;SDS011;14253;44.840;10.444;2023-04-03T08:35:04;6.90;;;5.50;;
26620;SDS011;14253;44.840;10.444;2023-04-03T08:37:30;6.78;;;4.57;;
26620;SDS011;14253;44.840;10.444;2023-04-03T08:39:56;6.45;;;4.90;;
26620;SDS011;14253;44.840;10.444;2023-04-03T08:50:38;6.85;;;5.07;;
26620;SDS011;14253;44.840;10.444;2023-04-03T08:53:17;7.90;;;5.18;;
26620;SDS011;14253;44.840;10.444;2023-04-03T08:55:47;8.75;;;5.85;;
26620;SDS011;14253;44.840;10.444;2023-04-03T08:58:16;8.43;;;4.88;;
26620;SDS011;14253;44.840;10.444;2023-04-03T09:03:20;7.50;;;4.60;;
26620;SDS011;14253;44.840;10.444;2023-04-03T09:05:54;9.82;;;4.60;;
26620;SDS011;14253;44.840;10.444;2023-04-03T09:08:29;6.68;;;4.07;;
26620;SDS011;14253;44.840;10.444;2023-04-03T09:11:05;7.32;;;4.18;;
26620;SDS011;14253;44.840;10.444;2023-04-03T09:13:55;7.10;;;4.70;;
26620;SDS011;14253;44.840;10.444;2023-04-03T09:16:54;7.63;;;4.60;;
26620;SDS011;14253;44.840;10.444;2023-04-03T09:22:02;7.60;;;4.72;;
26620;SDS011;14253;44.840;10.444;2023-04-03T09:27:10;10.07;;;5.05;;
26620;SDS011;14253;44.840;10.444;2023-04-03T09:29:38;5.90;;;4.97;;
26620;SDS011;14253;44.840;10.444;2023-04-03T09:34:54;6.72;;;4.53;;
26620;SDS011;14253;44.840;10.444;2023-04-03T09:37:35;10.55;;;4.97;;
26620;SDS011;14253;44.840;10.444;2023-04-03T09:40:30;6.60;;;3.67;;
26620;SDS011;14253;44.840;10.444;2023-04-03T09:43:01;6.80;;;3.90;;
26620;SDS011;14253;44.840;10.444;2023-04-03T09:45:44;8.32;;;3.67;;
26620;SDS011;14253;44.840;10.444;2023-04-03T09:53:34;3.95;;;2.60;;
26620;SDS011;14253;44.840;10.444;2023-04-03T09:56:18;5.63;;;2.67;;
26620;SDS011;14253;44.840;10.444;2023-04-03T09:58:51;3.70;;;2.63;;
26620;SDS011;14253;44.840;10.444;2023-04-03T10:01:27;12.05;;;3.88;;
26620;SDS011;14253;44.840;10.444;2023-04-03T10:04:02;3.83;;;2.80;;
26620;SDS011;14253;44.840;10.444;2023-04-03T10:06:44;5.47;;;3.25;;
26620;SDS011;14253;44.840;10.444;2023-04-03T10:09:16;6.85;;;3.33;;
26620;SDS011;14253;44.840;10.444;2023-04-03T10:15:10;4.95;;;4.00;;
26620;SDS011;14253;44.840;10.444;2023-04-03T10:34:03;5.32;;;2.67;;
26620;SDS011;14253;44.840;10.444;2023-04-03T10:36:37;4.85;;;2.25;;
26620;SDS011;14253;44.840;10.444;2023-04-03T10:42:03;3.13;;;1.60;;
26620;SDS011;14253;44.840;10.444;2023-04-03T10:47:13;2.38;;;1.10;;
26620;SDS011;14253;44.840;10.444;2023-04-03T10:58:01;2.47;;;1.02;;
26620;SDS011;14253;44.840;10.444;2023-04-03T11:00:41;1.77;;;1.10;;
26620;SDS011;14253;44.840;10.444;2023-04-03T11:03:12;2.03;;;1.15;;
26620;SDS011;14253;44.840;10.444;2023-04-03T11:06:05;0.90;;;0.70;;
26620;SDS011;14253;44.840;10.444;2023-04-03T11:11:33;2.28;;;0.60;;
26620;SDS011;14253;44.840;10.444;2023-04-03T11:14:11;2.45;;;0.70;;
26620;SDS011;14253;44.840;10.444;2023-04-03T11:22:41;5.93;;;0.95;;
26620;SDS011;14253;44.840;10.444;2023-04-03T11:27:41;2.92;;;1.02;;
26620;SDS011;14253;44.840;10.444;2023-04-03T11:30:18;2.33;;;0.70;;
26620;SDS011;14253;44.840;10.444;2023-04-03T11:35:31;4.93;;;1.10;;
26620;SDS011;14253;44.840;10.444;2023-04-03T11:37:59;2.28;;;0.80;;
26620;SDS011;14253;44.840;10.444;2023-04-03T11:40:31;2.65;;;0.82;;
26620;SDS011;14253;44.840;10.444;2023-04-03T11:45:33;3.50;;;0.70;;
26620;SDS011;14253;44.840;10.444;2023-04-03T11:50:44;1.38;;;0.77;;
26620;SDS011;14253;44.840;10.444;2023-04-03T12:13:43;1.73;;;0.90;;
26620;SDS011;14253;44.840;10.444;2023-04-03T12:26:46;3.75;;;0.90;;
26620;SDS011;14253;44.840;10.444;2023-04-03T12:29:29;5.60;;;1.02;;
26620;SDS011;14253;44.840;10.444;2023-04-03T12:54:13;4.97;;;1.10;;
26620;SDS011;14253;44.840;10.444;2023-04-03T12:56:42;15.45;;;1.58;;
26620;SDS011;14253;44.840;10.444;2023-04-03T12:59:25;3.08;;;1.20;;
26620;SDS011;14253;44.840;10.444;2023-04-03T13:01:55;3.05;;;1.60;;
26620;SDS011;14253;44.840;10.444;2023-04-03T13:04:23;5.97;;;1.65;;
26620;SDS011;14253;44.840;10.444;2023-04-03T13:06:50;12.90;;;1.80;;
26620;SDS011;14253;44.840;10.444;2023-04-03T13:11:52;5.28;;;1.85;;
26620;SDS011;14253;44.840;10.444;2023-04-03T13:14:24;8.85;;;1.95;;
26620;SDS011;14253;44.840;10.444;2023-04-03T13:17:02;10.88;;;2.50;;
26620;SDS011;14253;44.840;10.444;2023-04-03T13:19:29;10.82;;;3.22;;
26620;SDS011;14253;44.840;10.444;2023-04-03T13:22:01;5.35;;;2.53;;
26620;SDS011;14253;44.840;10.444;2023-04-03T13:24:30;8.48;;;3.00;;
26620;SDS011;14253;44.840;10.444;2023-04-03T13:27:00;9.82;;;2.65;;
26620;SDS011;14253;44.840;10.444;2023-04-03T13:29:28;10.05;;;2.47;;
26620;SDS011;14253;44.840;10.444;2023-04-03T13:31:57;4.20;;;2.25;;
26620;SDS011;14253;44.840;10.444;2023-04-03T13:34:26;3.70;;;2.22;;
26620;SDS011;14253;44.840;10.444;2023-04-03T13:37:04;5.57;;;1.77;;
26620;SDS011;14253;44.840;10.444;2023-04-03T13:39:34;7.05;;;2.33;;
26620;SDS011;14253;44.840;10.444;2023-04-03T13:42:14;4.38;;;1.80;;
26620;SDS011;14253;44.840;10.444;2023-04-03T13:44:46;2.35;;;1.38;;
26620;SDS011;14253;44.840;10.444;2023-04-03T13:49:45;5.05;;;1.73;;
26620;SDS011;14253;44.840;10.444;2023-04-03T13:52:26;4.35;;;1.70;;
26620;SDS011;14253;44.840;10.444;2023-04-03T13:54:56;4.60;;;1.70;;
26620;SDS011;14253;44.840;10.444;2023-04-03T13:57:25;4.78;;;1.92;;
26620;SDS011;14253;44.840;10.444;2023-04-03T13:59:52;7.07;;;2.10;;
26620;SDS011;14253;44.840;10.444;2023-04-03T14:02:21;9.15;;;1.70;;
26620;SDS011;14253;44.840;10.444;2023-04-03T14:04:56;5.22;;;2.17;;
26620;SDS011;14253;44.840;10.444;2023-04-03T14:07:26;6.25;;;2.03;;
26620;SDS011;14253;44.840;10.444;2023-04-03T14:09:54;5.88;;;1.63;;
26620;SDS011;14253;44.840;10.444;2023-04-03T14:12:33;4.95;;;1.30;;
26620;SDS011;14253;44.840;10.444;2023-04-03T14:17:32;6.85;;;1.20;;
26620;SDS011;14253;44.840;10.444;2023-04-03T14:19:58;3.05;;;1.20;;
26620;SDS011;14253;44.840;10.444;2023-04-03T14:22:30;4.43;;;1.58;;
26620;SDS011;14253;44.840;10.444;2023-04-03T14:24:57;3.13;;;1.15;;
26620;SDS011;14253;44.840;10.444;2023-04-03T14:30:00;5.28;;;1.35;;
26620;SDS011;14253;44.840;10.444;2023-04-03T14:32:31;3.47;;;1.30;;
26620;SDS011;14253;44.840;10.444;2023-04-03T14:34:57;4.50;;;1.27;;
26620;SDS011;14253;44.840;10.444;2023-04-03T14:37:24;6.45;;;1.60;;
26620;SDS011;14253;44.840;10.444;2023-04-03T14:39:53;7.95;;;1.20;;
26620;SDS011;14253;44.840;10.444;2023-04-03T14:42:26;2.47;;;0.95;;
26620;SDS011;14253;44.840;10.444;2023-04-03T14:44:54;7.18;;;1.38;;
26620;SDS011;14253;44.840;10.444;2023-04-03T14:47:21;2.63;;;1.00;;
26620;SDS011;14253;44.840;10.444;2023-04-03T14:49:50;2.33;;;1.00;;
26620;SDS011;14253;44.840;10.444;2023-04-03T14:52:21;4.90;;;1.60;;
26620;SDS011;14253;44.840;10.444;2023-04-03T14:54:50;2.25;;;1.10;;
26620;SDS011;14253;44.840;10.444;2023-04-03T14:57:16;3.83;;;0.90;;
26620;SDS011;14253;44.840;10.444;2023-04-03T14:59:43;4.35;;;0.88;;
26620;SDS011;14253;44.840;10.444;2023-04-03T15:05:00;4.13;;;0.88;;
26620;SDS011;14253;44.840;10.444;2023-04-03T15:07:30;3.35;;;1.05;;
26620;SDS011;14253;44.840;10.444;2023-04-03T15:10:15;3.83;;;0.75;;
26620;SDS011;14253;44.840;10.444;2023-04-03T15:12:42;2.65;;;1.10;;
26620;SDS011;14253;44.840;10.444;2023-04-03T15:15:09;2.17;;;0.75;;
26620;SDS011;14253;44.840;10.444;2023-04-03T15:17:35;4.20;;;0.70;;
26620;SDS011;14253;44.840;10.444;2023-04-03T15:20:02;5.10;;;0.70;;
26620;SDS011;14253;44.840;10.444;2023-04-03T15:22:36;2.20;;;0.73;;
26620;SDS011;14253;44.840;10.444;2023-04-03T15:25:02;4.20;;;0.60;;
26620;SDS011;14253;44.840;10.444;2023-04-03T15:27:28;1.95;;;0.60;;
26620;SDS011;14253;44.840;10.444;2023-04-03T15:29:54;3.17;;;1.02;;
26620;SDS011;14253;44.840;10.444;2023-04-03T15:32:20;3.38;;;0.90;;
26620;SDS011;14253;44.840;10.444;2023-04-03T15:34:46;4.10;;;1.00;;
26620;SDS011;14253;44.840;10.444;2023-04-03T15:37:12;3.83;;;0.80;;
26620;SDS011;14253;44.840;10.444;2023-04-03T15:39:37;4.70;;;0.95;;
26620;SDS011;14253;44.840;10.444;2023-04-03T15:42:03;3.58;;;0.80;;
26620;SDS011;14253;44.840;10.444;2023-04-03T15:44:32;4.00;;;0.68;;
26620;SDS011;14253;44.840;10.444;2023-04-03T15:46:58;1.58;;;0.82;;
26620;SDS011;14253;44.840;10.444;2023-04-03T15:49:25;3.60;;;1.05;;
26620;SDS011;14253;44.840;10.444;2023-04-03T15:51:52;3.03;;;0.90;;
26620;SDS011;14253;44.840;10.444;2023-04-03T15:54:19;2.28;;;0.98;;
26620;SDS011;14253;44.840;10.444;2023-04-03T15:56:46;5.47;;;0.90;;
26620;SDS011;14253;44.840;10.444;2023-04-03T15:59:12;1.88;;;0.82;;
26620;SDS011;14253;44.840;10.444;2023-04-03T16:01:37;3.33;;;0.73;;
26620;SDS011;14253;44.840;10.444;2023-04-03T16:04:06;4.95;;;1.02;;
26620;SDS011;14253;44.840;10.444;2023-04-03T16:06:33;3.17;;;0.95;;
26620;SDS011;14253;44.840;10.444;2023-04-03T16:08:59;1.98;;;0.75;;
26620;SDS011;14253;44.840;10.444;2023-04-03T16:11:26;3.58;;;0.98;;
26620;SDS011;14253;44.840;10.444;2023-04-03T16:13:53;2.80;;;1.10;;
26620;SDS011;14253;44.840;10.444;2023-04-03T16:16:19;1.75;;;0.70;;
26620;SDS011;14253;44.840;10.444;2023-04-03T16:18:46;3.00;;;1.17;;
26620;SDS011;14253;44.840;10.444;2023-04-03T16:21:13;4.97;;;1.00;;
26620;SDS011;14253;44.840;10.444;2023-04-03T16:23:40;3.38;;;0.85;;
26620;SDS011;14253;44.840;10.444;2023-04-03T16:26:06;5.88;;;0.82;;
26620;SDS011;14253;44.840;10.444;2023-04-03T16:28:33;3.83;;;0.82;;
26620;SDS011;14253;44.840;10.444;2023-04-03T16:30:59;3.78;;;1.00;;
26620;SDS011;14253;44.840;10.444;2023-04-03T16:33:26;1.63;;;0.75;;
26620;SDS011;14253;44.840;10.444;2023-04-03T16:35:52;3.10;;;0.75;;
26620;SDS011;14253;44.840;10.444;2023-04-03T16:38:18;1.55;;;0.88;;
26620;SDS011;14253;44.840;10.444;2023-04-03T16:40:45;3.35;;;1.10;;
26620;SDS011;14253;44.840;10.444;2023-04-03T16:43:11;3.65;;;1.10;;
26620;SDS011;14253;44.840;10.444;2023-04-03T16:45:37;6.70;;;1.23;;
26620;SDS011;14253;44.840;10.444;2023-04-03T16:48:03;2.92;;;0.82;;
26620;SDS011;14253;44.840;10.444;2023-04-03T16:50:29;4.53;;;0.90;;
26620;SDS011;14253;44.840;10.444;2023-04-03T16:52:55;3.38;;;0.70;;
26620;SDS011;14253;44.840;10.444;2023-04-03T16:55:21;4.13;;;0.90;;
26620;SDS011;14253;44.840;10.444;2023-04-03T16:57:47;1.45;;;0.77;;
26620;SDS011;14253;44.840;10.444;2023-04-03T17:00:13;2.15;;;0.90;;
26620;SDS011;14253;44.840;10.444;2023-04-03T17:02:39;2.83;;;1.00;;
26620;SDS011;14253;44.840;10.444;2023-04-03T17:05:06;2.42;;;0.73;;
26620;SDS011;14253;44.840;10.444;2023-04-03T17:07:32;7.50;;;1.02;;
26620;SDS011;14253;44.840;10.444;2023-04-03T17:09:58;2.13;;;0.80;;
26620;SDS011;14253;44.840;10.444;2023-04-03T17:12:24;3.80;;;0.90;;
26620;SDS011;14253;44.840;10.444;2023-04-03T17:14:50;18.02;;;2.55;;
26620;SDS011;14253;44.840;10.444;2023-04-03T17:17:20;5.40;;;1.27;;